Time;durP1;ratioP1;P1;durP2;ratioP2;P2;SDS_P1;SDS_P2;PMS_P1;PMS_P2;Temp;Humidity;BMP_temperature;BMP_pressure;BME280_temperature;BME280_humidity;BME280_pressure;Samples;Min_cycle;Max_cycle;Signal;HPM_P1;HPM_P2
2022/03/19 00:01:08;;;;;;;138.70;133.27;;;7.70;99.90;;;;;;4389459;32;20161;-61
2022/03/19 00:03:35;;;;;;;152.10;146.13;;;7.60;99.90;;;;;;4389340;32;20626;-60
2022/03/19 00:06:01;;;;;;;168.17;161.40;;;7.60;99.90;;;;;;4389233;32;20174;-61
2022/03/19 00:08:30;;;;;;;157.40;151.27;;;7.60;99.90;;;;;;4385266;32;20664;-61
2022/03/19 00:10:56;;;;;;;153.43;147.30;;;7.60;99.90;;;;;;4389537;32;20219;-61
2022/03/19 00:13:23;;;;;;;164.83;158.33;;;7.60;99.90;;;;;;4391139;32;20203;-60
2022/03/19 00:15:50;;;;;;;180.90;173.83;;;7.50;99.90;;;;;;4389418;32;20171;-61
2022/03/19 00:18:17;;;;;;;175.73;168.90;;;7.50;99.90;;;;;;4387210;32;20204;-61
2022/03/19 00:20:44;;;;;;;184.70;177.50;;;7.40;99.90;;;;;;4384870;32;20142;-61
2022/03/19 00:23:11;;;;;;;187.27;179.97;;;7.30;99.90;;;;;;4390011;32;20152;-60
2022/03/19 00:25:40;;;;;;;194.33;186.73;;;7.30;99.90;;;;;;4389959;32;20159;-60
2022/03/19 00:28:07;;;;;;;185.57;178.33;;;7.30;99.90;;;;;;4391317;32;20227;-60
2022/03/19 00:30:34;;;;;;;168.73;162.03;;;7.30;99.90;;;;;;4392218;32;20152;-60
2022/03/19 00:33:02;;;;;;;170.73;164.03;;;7.30;99.90;;;;;;4392763;32;20195;-61
2022/03/19 00:35:29;;;;;;;168.20;161.57;;;7.50;99.90;;;;;;4392769;32;20204;-61
2022/03/19 00:37:56;;;;;;;187.70;180.37;;;7.40;99.90;;;;;;4387416;32;20149;-61
2022/03/19 00:40:24;;;;;;;193.07;185.47;;;7.30;99.90;;;;;;4392031;32;20156;-60
2022/03/19 00:42:52;;;;;;;190.63;183.13;;;7.30;99.90;;;;;;4389519;32;20152;-61
2022/03/19 00:45:20;;;;;;;197.90;190.17;;;7.30;99.90;;;;;;4382951;32;20173;-61
2022/03/19 00:47:47;;;;;;;191.20;183.67;;;7.30;99.90;;;;;;4388174;32;20237;-61
2022/03/19 00:50:14;;;;;;;195.43;187.80;;;7.20;99.90;;;;;;4393007;32;20201;-61
2022/03/19 00:52:41;;;;;;;173.90;166.97;;;7.20;99.90;;;;;;4392655;32;20513;-60
2022/03/19 00:55:09;;;;;;;187.70;180.37;;;7.10;99.90;;;;;;4392572;32;20172;-61
2022/03/19 00:57:41;;;;;;;185.23;177.93;;;7.10;99.90;;;;;;4390818;32;20217;-61
2022/03/19 01:00:11;;;;;;;184.13;176.87;;;7.10;99.90;;;;;;4381000;32;20195;-61
2022/03/19 01:02:39;;;;;;;177.10;170.17;;;7.10;99.90;;;;;;4391412;32;20633;-61
2022/03/19 01:05:07;;;;;;;165.23;158.63;;;7.10;99.90;;;;;;4391760;32;20136;-61
2022/03/19 01:07:33;;;;;;;158.30;152.10;;;7.00;99.90;;;;;;4391198;32;20558;-61
2022/03/19 01:10:00;;;;;;;151.57;145.63;;;7.00;99.90;;;;;;4389300;32;20274;-61
2022/03/19 01:12:27;;;;;;;149.43;143.43;;;7.00;99.90;;;;;;4377278;32;20252;-61
2022/03/19 01:14:54;;;;;;;137.77;132.37;;;7.00;99.90;;;;;;4385201;32;20161;-60
2022/03/19 01:17:22;;;;;;;137.27;131.77;;;6.90;99.90;;;;;;4393019;32;20156;-61
2022/03/19 01:19:58;;;;;;;136.93;131.53;;;6.90;99.90;;;;;;4389296;32;20235;-61
2022/03/19 01:22:25;;;;;;;125.83;120.93;;;6.80;99.90;;;;;;4392348;32;20159;-61
2022/03/19 01:24:52;;;;;;;140.47;135.00;;;6.80;99.90;;;;;;4392652;32;20572;-61
2022/03/19 01:27:19;;;;;;;130.80;125.60;;;6.70;99.90;;;;;;4391496;32;20171;-61
2022/03/19 01:29:46;;;;;;;125.13;120.17;;;6.70;99.90;;;;;;4391080;32;20156;-61
2022/03/19 01:32:13;;;;;;;122.33;117.47;;;6.70;99.90;;;;;;4391688;32;20595;-61
2022/03/19 01:34:41;;;;;;;127.17;122.20;;;6.70;99.90;;;;;;4391759;32;20178;-61
2022/03/19 01:37:10;;;;;;;112.60;108.10;;;6.70;99.90;;;;;;4391369;32;20180;-60
2022/03/19 01:39:39;;;;;;;119.50;114.63;;;6.60;99.90;;;;;;4388765;32;20163;-61
2022/03/19 01:42:08;;;;;;;118.63;113.97;;;6.60;99.90;;;;;;4387700;32;20160;-60
2022/03/19 01:44:35;;;;;;;108.27;104.00;;;6.60;99.90;;;;;;4377068;32;20183;-61
2022/03/19 01:47:06;;;;;;;111.37;106.97;;;6.50;99.90;;;;;;4378242;32;20224;-61
2022/03/19 01:49:33;;;;;;;111.07;106.73;;;6.50;99.90;;;;;;4381331;32;20152;-61
2022/03/19 01:52:09;;;;;;;109.20;104.80;;;6.40;99.90;;;;;;4388669;32;20231;-61
2022/03/19 01:54:41;;;;;;;105.17;101.00;;;6.40;99.90;;;;;;4384896;32;20151;-61
2022/03/19 01:57:09;;;;;;;120.67;115.97;;;6.40;99.90;;;;;;4391835;32;20219;-61
2022/03/19 01:59:40;;;;;;;104.67;100.57;;;6.20;99.90;;;;;;4389313;32;20184;-60
2022/03/19 02:02:11;;;;;;;107.57;103.37;;;6.30;99.90;;;;;;4390556;32;20156;-60
2022/03/19 02:04:39;;;;;;;100.93;96.83;;;6.30;99.90;;;;;;4386171;32;20225;-60
2022/03/19 02:07:12;;;;;;;113.27;108.80;;;6.30;99.90;;;;;;4384743;32;20587;-61
2022/03/19 02:09:40;;;;;;;114.93;110.43;;;6.20;99.90;;;;;;4389056;32;20215;-60
2022/03/19 02:12:10;;;;;;;109.77;105.40;;;6.20;99.90;;;;;;4384516;32;20153;-59
2022/03/19 02:14:39;;;;;;;110.37;106.00;;;6.20;99.90;;;;;;4378731;32;20208;-60
2022/03/19 02:17:10;;;;;;;107.93;103.67;;;6.20;99.90;;;;;;4380477;32;20152;-60
2022/03/19 02:19:48;;;;;;;107.73;103.43;;;6.20;99.90;;;;;;4375711;32;20224;-61
2022/03/19 02:22:20;;;;;;;99.90;96.00;;;6.10;99.90;;;;;;4378617;32;20145;-61
2022/03/19 02:27:34;;;;;;;84.70;81.37;;;6.10;99.90;;;;;;4380910;32;20182;-61
2022/03/19 02:30:01;;;;;;;95.17;91.30;;;6.10;99.90;;;;;;4377500;32;20209;-61
2022/03/19 02:32:28;;;;;;;95.77;92.00;;;6.00;99.90;;;;;;4381222;32;20247;-60
2022/03/19 02:34:55;;;;;;;95.07;91.33;;;6.00;99.90;;;;;;4377718;32;20224;-61
2022/03/19 02:37:22;;;;;;;88.10;84.33;;;6.00;99.90;;;;;;4385035;32;20219;-61
2022/03/19 02:39:52;;;;;;;86.83;83.37;;;6.00;99.90;;;;;;4382037;32;20219;-61
2022/03/19 02:42:21;;;;;;;84.30;80.93;;;5.90;99.90;;;;;;4383368;32;20160;-61
2022/03/19 02:44:49;;;;;;;84.43;81.07;;;5.90;99.90;;;;;;4390112;32;20217;-61
2022/03/19 02:47:16;;;;;;;80.83;77.67;;;5.90;99.90;;;;;;4390631;32;20520;-61
2022/03/19 02:49:47;;;;;;;79.37;76.23;;;5.80;99.90;;;;;;4390420;32;20162;-61
2022/03/19 02:52:14;;;;;;;77.37;74.27;;;5.90;99.90;;;;;;4384635;32;20180;-60
2022/03/19 02:54:41;;;;;;;74.53;71.17;;;5.80;99.90;;;;;;4390497;32;20174;-59
2022/03/19 02:57:09;;;;;;;82.03;78.83;;;5.70;99.90;;;;;;4390149;32;20148;-60
2022/03/19 02:59:36;;;;;;;79.00;75.90;;;5.70;99.90;;;;;;4389874;32;20160;-60
2022/03/19 03:02:05;;;;;;;79.03;75.87;;;5.70;99.90;;;;;;4388618;32;20140;-61
2022/03/19 03:04:31;;;;;;;70.37;67.57;;;5.60;99.90;;;;;;4390376;32;20144;-62
2022/03/19 03:07:01;;;;;;;73.07;70.20;;;5.60;99.90;;;;;;4390631;32;20258;-59
2022/03/19 03:09:29;;;;;;;72.73;69.83;;;5.60;99.90;;;;;;4389376;32;20199;-60
2022/03/19 03:11:58;;;;;;;74.90;71.93;;;5.60;99.90;;;;;;4383078;32;20235;-60
2022/03/19 03:14:26;;;;;;;62.80;60.30;;;5.50;99.90;;;;;;4380263;32;20159;-61
2022/03/19 03:16:59;;;;;;;66.43;63.63;;;5.60;99.90;;;;;;4386219;32;20152;-61
2022/03/19 03:19:26;;;;;;;65.17;62.60;;;5.60;99.90;;;;;;4391805;32;20136;-60
2022/03/19 03:21:53;;;;;;;59.80;57.40;;;5.40;99.90;;;;;;4384861;32;20186;-61
2022/03/19 03:24:20;;;;;;;57.03;54.80;;;5.40;99.90;;;;;;4375571;32;20175;-60
2022/03/19 03:26:47;;;;;;;62.27;59.83;;;5.40;99.90;;;;;;4388104;32;20175;-60
2022/03/19 03:29:15;;;;;;;60.83;58.47;;;5.40;99.90;;;;;;4390062;32;20444;-60
2022/03/19 03:31:45;;;;;;;61.57;58.97;;;5.30;99.90;;;;;;4387269;32;20145;-61
2022/03/19 03:34:13;;;;;;;63.93;61.37;;;5.30;99.90;;;;;;4385003;32;20171;-61
2022/03/19 03:36:40;;;;;;;58.17;55.90;;;5.30;99.90;;;;;;4389778;32;20152;-60
2022/03/19 03:39:07;;;;;;;55.67;53.10;;;5.30;99.90;;;;;;4389652;32;20147;-61
2022/03/19 03:41:34;;;;;;;55.73;53.53;;;5.20;99.90;;;;;;4388259;32;20203;-61
2022/03/19 03:44:01;;;;;;;56.03;53.83;;;5.20;99.90;;;;;;4388942;32;20234;-60
2022/03/19 03:46:28;;;;;;;54.03;51.90;;;5.20;99.90;;;;;;4389821;32;20215;-61
2022/03/19 03:48:56;;;;;;;53.30;51.20;;;5.20;99.90;;;;;;4389298;32;20262;-61
2022/03/19 03:51:23;;;;;;;48.80;46.90;;;5.20;99.90;;;;;;4389843;32;20175;-61
2022/03/19 03:53:50;;;;;;;44.27;42.20;;;5.10;99.90;;;;;;4383920;32;20552;-60
2022/03/19 03:56:17;;;;;;;42.20;40.57;;;5.10;99.90;;;;;;4389203;32;20152;-61
2022/03/19 03:58:45;;;;;;;39.30;37.70;;;5.10;99.90;;;;;;4389361;32;20144;-60
2022/03/19 04:01:12;;;;;;;39.50;37.80;;;5.10;99.90;;;;;;4389470;32;20282;-61
2022/03/19 04:03:39;;;;;;;39.13;37.50;;;5.00;99.90;;;;;;4391474;32;20195;-60
2022/03/19 04:06:08;;;;;;;34.47;33.00;;;5.00;99.90;;;;;;4392946;32;20231;-60
2022/03/19 04:08:35;;;;;;;33.57;32.20;;;5.10;99.90;;;;;;4392612;32;20166;-60
2022/03/19 04:11:02;;;;;;;32.47;31.23;;;5.00;99.90;;;;;;4392939;32;20140;-61
2022/03/19 04:13:29;;;;;;;31.23;29.93;;;5.10;99.90;;;;;;4390229;32;20176;-61
2022/03/19 04:15:55;;;;;;;34.37;33.00;;;5.00;99.90;;;;;;4391826;32;20145;-59
2022/03/19 04:18:22;;;;;;;34.43;33.10;;;5.00;99.90;;;;;;4386264;32;20172;-60
2022/03/19 04:20:49;;;;;;;31.50;30.27;;;5.10;99.90;;;;;;4393120;32;20136;-61
2022/03/19 04:23:20;;;;;;;31.20;29.93;;;5.00;99.90;;;;;;4390540;32;20639;-61
2022/03/19 04:25:47;;;;;;;31.40;30.17;;;5.00;99.90;;;;;;4393656;32;20440;-61
2022/03/19 04:28:14;;;;;;;35.83;34.47;;;5.00;99.90;;;;;;4393083;32;20221;-59
2022/03/19 04:30:41;;;;;;;29.87;28.73;;;4.90;99.90;;;;;;4392743;32;20160;-60
2022/03/19 04:33:08;;;;;;;31.50;30.27;;;5.00;99.90;;;;;;4387550;32;20181;-60
2022/03/19 04:38:22;;;;;;;30.93;29.73;;;5.00;99.90;;;;;;4392093;32;20205;-61
2022/03/19 04:40:53;;;;;;;31.10;29.90;;;5.00;99.90;;;;;;4391635;32;20222;-60
2022/03/19 04:43:20;;;;;;;31.00;29.77;;;4.90;99.90;;;;;;4388366;32;20223;-59
2022/03/19 04:45:47;;;;;;;29.50;28.33;;;5.00;99.90;;;;;;4384369;32;20190;-59
2022/03/19 04:48:14;;;;;;;32.03;30.73;;;4.90;99.90;;;;;;4391818;32;20145;-59
2022/03/19 04:50:43;;;;;;;30.60;29.33;;;4.90;99.90;;;;;;4391521;32;20148;-59
2022/03/19 04:53:10;;;;;;;32.37;31.10;;;5.00;99.90;;;;;;4386186;32;20549;-59
2022/03/19 04:55:40;;;;;;;31.60;30.37;;;5.00;99.90;;;;;;4381050;32;20925;-59
2022/03/19 04:58:07;;;;;;;32.20;31.00;;;4.90;99.90;;;;;;4392455;32;20168;-60
2022/03/19 05:00:35;;;;;;;32.90;31.60;;;4.90;99.90;;;;;;4391356;32;20243;-59
2022/03/19 05:03:02;;;;;;;34.33;32.97;;;4.80;99.90;;;;;;4385433;32;20167;-60
2022/03/19 05:05:29;;;;;;;29.43;28.23;;;4.80;99.90;;;;;;4388937;32;20167;-60
2022/03/19 05:07:56;;;;;;;29.27;28.13;;;4.80;99.90;;;;;;4391130;32;20500;-60
2022/03/19 05:13:10;;;;;;;27.83;26.73;;;4.70;99.90;;;;;;4392119;32;20167;-60
2022/03/19 05:15:39;;;;;;;29.37;28.20;;;4.70;99.90;;;;;;4387436;32;20170;-60
2022/03/19 05:18:06;;;;;;;30.17;28.97;;;4.70;99.90;;;;;;4391989;32;20589;-62
2022/03/19 05:20:34;;;;;;;30.90;29.70;;;4.70;99.90;;;;;;4390752;32;20490;-59
2022/03/19 05:23:01;;;;;;;30.67;29.40;;;4.70;99.90;;;;;;4391752;32;20152;-61
2022/03/19 05:25:28;;;;;;;32.43;31.10;;;4.70;99.90;;;;;;4383759;32;20180;-62
2022/03/19 05:27:55;;;;;;;30.13;28.97;;;4.70;99.90;;;;;;4379746;32;20608;-61
2022/03/19 05:30:23;;;;;;;29.63;28.43;;;4.70;99.90;;;;;;4391750;32;20171;-58
2022/03/19 05:32:50;;;;;;;30.27;29.10;;;4.70;99.90;;;;;;4391802;32;20194;-60
2022/03/19 05:35:18;;;;;;;28.53;27.43;;;4.70;99.90;;;;;;4385385;32;20156;-61
2022/03/19 05:37:46;;;;;;;31.23;30.00;;;4.80;99.90;;;;;;4390303;32;20148;-61
2022/03/19 05:40:14;;;;;;;30.63;29.43;;;4.80;99.90;;;;;;4390938;32;20167;-61
2022/03/19 05:42:41;;;;;;;31.47;30.20;;;4.70;99.90;;;;;;4386565;32;20202;-61
2022/03/19 05:45:09;;;;;;;29.60;28.43;;;4.70;99.90;;;;;;4387887;32;20607;-61
2022/03/19 05:47:40;;;;;;;29.53;28.33;;;4.70;99.90;;;;;;4387582;32;20548;-60
2022/03/19 05:50:09;;;;;;;28.03;26.90;;;4.70;99.90;;;;;;4390790;32;20164;-60
2022/03/19 05:52:39;;;;;;;27.97;26.90;;;4.70;99.90;;;;;;4390791;32;20573;-60
2022/03/19 05:55:08;;;;;;;27.87;26.73;;;4.80;99.90;;;;;;4391250;32;20524;-61
2022/03/19 05:57:35;;;;;;;27.90;26.70;;;4.70;99.90;;;;;;4391215;32;20186;-60
2022/03/19 06:00:02;;;;;;;28.27;27.10;;;4.70;99.90;;;;;;4390195;32;20223;-61
2022/03/19 06:02:28;;;;;;;26.47;25.47;;;4.80;99.90;;;;;;4390522;32;20144;-61
2022/03/19 06:04:57;;;;;;;30.27;28.73;;;4.80;99.90;;;;;;4389816;32;20152;-61
2022/03/19 06:07:23;;;;;;;30.53;29.33;;;4.80;99.90;;;;;;4386683;32;20207;-59
2022/03/19 06:09:50;;;;;;;28.50;27.37;;;4.90;99.90;;;;;;4390529;32;20183;-59
2022/03/19 06:12:17;;;;;;;28.10;27.00;;;4.90;99.90;;;;;;4392261;32;20174;-59
2022/03/19 06:14:43;;;;;;;31.67;30.17;;;5.00;99.90;;;;;;4391663;32;20242;-60
2022/03/19 06:17:10;;;;;;;26.43;25.40;;;5.00;99.90;;;;;;4386427;32;20259;-59
2022/03/19 06:19:41;;;;;;;28.20;27.10;;;5.00;99.90;;;;;;4390443;32;20171;-59
2022/03/19 06:22:10;;;;;;;29.13;27.90;;;5.00;99.90;;;;;;4390835;32;20221;-60
2022/03/19 06:24:36;;;;;;;28.43;27.27;;;5.10;99.90;;;;;;4390305;32;20160;-60
2022/03/19 06:27:04;;;;;;;29.17;28.03;;;5.10;99.90;;;;;;4386533;32;20213;-60
2022/03/19 06:29:30;;;;;;;31.60;30.33;;;5.10;99.90;;;;;;4384044;32;20942;-59
2022/03/19 06:31:58;;;;;;;30.40;28.60;;;5.20;99.90;;;;;;4367019;32;20582;-59
2022/03/19 06:34:32;;;;;;;28.87;27.53;;;5.30;99.90;;;;;;4381401;32;20234;-60
2022/03/19 06:37:23;;;;;;;28.40;27.23;;;5.30;99.90;;;;;;4371849;32;20269;-60
2022/03/19 06:39:54;;;;;;;24.77;23.73;;;5.40;99.90;;;;;;4375927;32;20233;-62
2022/03/19 06:42:22;;;;;;;25.77;24.77;;;5.50;99.90;;;;;;4379199;32;20220;-61
2022/03/19 06:44:49;;;;;;;28.17;27.00;;;5.50;99.90;;;;;;4380846;32;20187;-61
2022/03/19 06:47:17;;;;;;;30.17;28.93;;;5.60;99.90;;;;;;4381098;32;20177;-61
2022/03/19 06:49:45;;;;;;;26.23;25.23;;;5.60;99.90;;;;;;4372905;32;20204;-61
2022/03/19 06:52:12;;;;;;;30.37;29.17;;;5.60;99.90;;;;;;4379110;32;20193;-59
2022/03/19 06:54:39;;;;;;;27.87;26.73;;;5.70;99.90;;;;;;4378892;32;20210;-60
2022/03/19 06:57:07;;;;;;;29.40;28.27;;;5.80;99.90;;;;;;4378403;32;20140;-59
2022/03/19 06:59:36;;;;;;;31.57;30.17;;;5.80;99.90;;;;;;4377894;32;20145;-59
2022/03/19 07:02:03;;;;;;;28.43;27.30;;;5.80;99.90;;;;;;4384738;32;20184;-60
2022/03/19 07:04:30;;;;;;;31.83;30.53;;;5.90;99.90;;;;;;4382739;32;20215;-60
2022/03/19 07:06:56;;;;;;;26.70;25.67;;;6.00;99.90;;;;;;4382571;32;20282;-59
2022/03/19 07:09:23;;;;;;;31.73;30.47;;;6.00;99.90;;;;;;4387858;32;20216;-59
2022/03/19 07:11:50;;;;;;;27.90;26.73;;;6.10;99.90;;;;;;4389196;32;20235;-59
2022/03/19 07:14:18;;;;;;;28.83;27.63;;;6.10;99.90;;;;;;4389487;32;20188;-60
2022/03/19 07:16:45;;;;;;;30.67;29.43;;;6.20;99.90;;;;;;4390047;32;20148;-61
2022/03/19 07:19:13;;;;;;;31.37;30.07;;;6.30;99.90;;;;;;4389373;32;20667;-60
2022/03/19 07:21:41;;;;;;;25.63;24.60;;;6.30;99.90;;;;;;4390215;32;20254;-60
2022/03/19 07:24:08;;;;;;;30.03;28.83;;;6.40;99.90;;;;;;4390299;32;20303;-60
2022/03/19 07:26:36;;;;;;;33.10;31.77;;;6.40;99.90;;;;;;4386176;32;20203;-59
2022/03/19 07:29:04;;;;;;;31.60;30.30;;;6.50;99.90;;;;;;4383784;32;20568;-60
2022/03/19 07:31:34;;;;;;;30.67;29.43;;;6.60;99.90;;;;;;4387283;32;21642;-59
2022/03/19 07:34:01;;;;;;;30.57;29.37;;;6.70;99.90;;;;;;4384159;32;20168;-60
2022/03/19 07:36:28;;;;;;;33.80;32.40;;;6.70;99.90;;;;;;4388012;32;20884;-61
2022/03/19 07:38:55;;;;;;;31.90;30.63;;;6.80;99.90;;;;;;4388904;32;20148;-59
2022/03/19 07:44:06;;;;;;;28.73;27.60;;;6.90;99.90;;;;;;4389466;32;20205;-60
2022/03/19 07:46:35;;;;;;;32.73;31.47;;;7.00;99.90;;;;;;4389156;32;20206;-60
2022/03/19 07:49:02;;;;;;;28.87;27.73;;;7.20;99.90;;;;;;4385923;32;20439;-60
2022/03/19 07:51:30;;;;;;;29.30;28.17;;;7.30;99.90;;;;;;4388996;32;20163;-60
2022/03/19 07:53:57;;;;;;;28.93;27.83;;;7.40;99.90;;;;;;4387821;32;20156;-60
2022/03/19 07:56:24;;;;;;;34.60;33.10;;;7.50;99.90;;;;;;4388562;32;20152;-60
2022/03/19 07:58:51;;;;;;;33.00;31.60;;;7.60;99.90;;;;;;4387694;32;20530;-60
2022/03/19 08:01:18;;;;;;;29.87;28.70;;;7.70;99.90;;;;;;4338096;32;1647052;-60
2022/03/19 08:03:47;;;;;;;27.30;26.20;;;7.90;99.90;;;;;;4388807;32;20152;-60
2022/03/19 08:06:16;;;;;;;32.43;31.13;;;8.00;99.90;;;;;;4388518;32;20148;-60
2022/03/19 08:08:43;;;;;;;32.83;31.43;;;8.10;99.90;;;;;;4386372;32;20276;-60
2022/03/19 08:11:10;;;;;;;35.03;33.57;;;8.20;99.90;;;;;;4388061;32;20209;-60
2022/03/19 08:13:39;;;;;;;32.27;31.00;;;8.40;99.90;;;;;;4389268;32;20528;-61
2022/03/19 08:16:05;;;;;;;34.23;32.87;;;8.50;99.90;;;;;;4387030;32;20515;-59
2022/03/19 08:18:33;;;;;;;33.80;32.50;;;8.60;99.90;;;;;;4386419;32;20592;-61
2022/03/19 08:21:02;;;;;;;34.70;33.33;;;8.70;99.90;;;;;;4388122;32;20160;-60
2022/03/19 08:23:29;;;;;;;34.43;33.10;;;8.70;99.90;;;;;;4387753;32;20154;-60
2022/03/19 08:25:56;;;;;;;38.60;37.10;;;8.70;99.90;;;;;;4386722;32;20139;-60
2022/03/19 08:28:23;;;;;;;34.73;33.30;;;8.80;99.90;;;;;;4388025;32;20156;-59
2022/03/19 08:30:50;;;;;;;34.50;33.13;;;9.00;99.90;;;;;;4389218;32;20184;-61
2022/03/19 08:33:17;;;;;;;37.47;35.93;;;9.10;99.90;;;;;;4386710;32;20177;-60
2022/03/19 08:35:43;;;;;;;35.03;33.63;;;9.20;99.90;;;;;;4390575;32;20489;-61
2022/03/19 08:40:58;;;;;;;33.00;31.63;;;9.60;99.90;;;;;;4389230;32;20645;-61
2022/03/19 08:43:25;;;;;;;36.77;35.30;;;9.70;99.90;;;;;;4388847;32;20143;-61
2022/03/19 08:45:51;;;;;;;37.30;35.87;;;9.80;99.90;;;;;;4389009;32;20567;-60
2022/03/19 08:48:19;;;;;;;37.83;36.37;;;9.90;99.90;;;;;;4390623;32;20142;-61
2022/03/19 08:50:45;;;;;;;41.37;39.70;;;10.00;99.90;;;;;;4389465;32;20156;-62
2022/03/19 08:53:14;;;;;;;45.07;43.13;;;10.10;99.90;;;;;;4392072;32;20259;-61
2022/03/19 08:55:45;;;;;;;46.57;44.70;;;10.20;99.90;;;;;;4389374;32;20139;-61
2022/03/19 08:58:13;;;;;;;41.73;40.07;;;10.20;99.90;;;;;;4391188;32;20582;-61
2022/03/19 09:00:41;;;;;;;42.93;41.27;;;10.30;99.90;;;;;;4390381;32;20240;-60
2022/03/19 09:03:09;;;;;;;50.53;48.37;;;10.40;99.90;;;;;;4389977;32;20166;-62
2022/03/19 09:05:37;;;;;;;46.63;44.73;;;10.40;99.90;;;;;;4390836;32;20211;-63
2022/03/19 09:08:10;;;;;;;47.10;45.23;;;10.40;99.90;;;;;;4389975;32;20564;-61
2022/03/19 09:10:38;;;;;;;43.87;42.13;;;10.50;99.90;;;;;;4389955;32;20158;-63
2022/03/19 09:13:07;;;;;;;47.87;45.90;;;10.60;99.90;;;;;;4392768;32;20160;-61
2022/03/19 09:15:36;;;;;;;43.80;42.07;;;10.60;99.90;;;;;;4391760;32;20638;-62
2022/03/19 09:18:05;;;;;;;46.23;44.27;;;10.70;99.90;;;;;;4389097;32;20228;-61
2022/03/19 09:20:32;;;;;;;45.97;44.17;;;10.80;99.90;;;;;;4390377;32;20298;-61
2022/03/19 09:22:59;;;;;;;41.47;39.83;;;10.80;99.90;;;;;;4390950;32;20275;-62
2022/03/19 09:25:29;;;;;;;43.73;42.03;;;10.90;99.40;;;;;;4391644;32;20618;-62
2022/03/19 09:27:57;;;;;;;36.77;35.27;;;11.00;99.30;;;;;;4391385;32;20238;-61
2022/03/19 09:30:27;;;;;;;36.07;34.53;;;11.00;97.80;;;;;;4389731;32;20227;-61
2022/03/19 09:32:56;;;;;;;33.80;32.40;;;11.00;98.10;;;;;;4391422;32;20148;-61
2022/03/19 09:35:23;;;;;;;31.60;30.30;;;11.10;97.30;;;;;;4390205;32;20167;-62
2022/03/19 09:37:50;;;;;;;33.27;31.97;;;11.10;97.40;;;;;;4391599;32;20248;-61
2022/03/19 09:40:17;;;;;;;31.20;29.60;;;11.20;97.40;;;;;;4389781;32;20246;-62
2022/03/19 09:42:48;;;;;;;25.93;24.93;;;11.20;96.90;;;;;;4390654;32;20164;-62
2022/03/19 09:45:21;;;;;;;25.87;24.87;;;11.30;94.60;;;;;;4392178;32;20178;-60
2022/03/19 09:47:51;;;;;;;24.73;23.83;;;11.30;94.20;;;;;;4392013;32;20160;-61
2022/03/19 09:50:18;;;;;;;25.27;24.27;;;11.40;94.60;;;;;;4390825;32;20137;-64
2022/03/19 09:52:45;;;;;;;21.37;20.57;;;11.50;94.40;;;;;;4378832;32;20223;-62
2022/03/19 09:55:17;;;;;;;22.97;22.07;;;11.50;94.10;;;;;;4377498;32;20234;-61
2022/03/19 09:57:44;;;;;;;21.53;20.73;;;11.70;92.50;;;;;;4382502;32;20152;-60
2022/03/19 10:00:12;;;;;;;21.20;20.40;;;11.80;91.60;;;;;;4390733;32;20192;-61
2022/03/19 10:02:54;;;;;;;18.77;18.07;;;11.90;90.60;;;;;;4379666;32;20152;-61
2022/03/19 10:10:55;;;;;;;20.03;19.30;;;12.00;87.60;;;;;;4376934;32;20163;-61
2022/03/19 10:13:22;;;;;;;23.87;22.77;;;12.00;86.40;;;;;;4378068;32;20137;-61
2022/03/19 10:15:49;;;;;;;23.70;22.67;;;12.00;83.00;;;;;;4389530;32;20144;-61
2022/03/19 10:18:19;;;;;;;24.23;23.33;;;12.00;83.30;;;;;;4391504;32;20160;-62
2022/03/19 10:20:46;;;;;;;24.60;23.70;;;12.00;81.50;;;;;;4391766;32;20190;-61
2022/03/19 10:23:13;;;;;;;24.10;23.20;;;12.10;80.20;;;;;;4379092;32;20224;-61
2022/03/19 10:25:40;;;;;;;28.93;27.83;;;12.20;80.20;;;;;;4376410;32;20136;-61
2022/03/19 10:28:09;;;;;;;31.27;30.07;;;12.20;77.30;;;;;;4379553;32;20168;-61
2022/03/19 10:30:39;;;;;;;34.67;33.27;;;12.30;76.20;;;;;;4376219;32;20132;-63
2022/03/19 10:33:11;;;;;;;37.10;35.60;;;12.20;75.10;;;;;;4380686;32;20243;-61
2022/03/19 10:35:41;;;;;;;33.43;32.13;;;12.30;73.00;;;;;;4376121;32;20141;-61
2022/03/19 10:38:19;;;;;;;34.93;33.57;;;12.20;70.10;;;;;;4376531;32;20137;-61
2022/03/19 10:40:51;;;;;;;37.80;36.23;;;12.30;68.30;;;;;;4376127;32;20174;-60
2022/03/19 10:43:19;;;;;;;33.50;32.20;;;12.20;68.90;;;;;;4385481;32;20226;-61
2022/03/19 10:45:48;;;;;;;39.50;37.77;;;12.20;67.70;;;;;;4391040;32;20132;-61
2022/03/19 10:48:19;;;;;;;39.17;37.63;;;12.20;69.20;;;;;;4387541;32;20214;-60
2022/03/19 10:50:48;;;;;;;35.37;33.97;;;12.20;67.70;;;;;;4375918;32;20133;-60
2022/03/19 10:53:15;;;;;;;38.83;37.30;;;12.30;69.60;;;;;;4378165;32;20164;-63
2022/03/19 10:55:42;;;;;;;40.23;38.60;;;12.50;69.80;;;;;;4375810;32;20166;-60
2022/03/19 10:58:09;;;;;;;36.00;34.60;;;12.50;67.70;;;;;;4380322;32;20159;-61
2022/03/19 11:00:36;;;;;;;36.00;34.60;;;12.50;66.90;;;;;;4386897;32;20168;-61
2022/03/19 11:03:12;;;;;;;34.60;33.20;;;12.50;68.00;;;;;;4375813;32;20154;-63
2022/03/19 11:05:40;;;;;;;31.70;30.50;;;12.60;65.90;;;;;;4375715;32;20144;-62
2022/03/19 11:08:08;;;;;;;33.87;32.47;;;12.70;67.90;;;;;;4375913;32;20151;-63
2022/03/19 11:10:36;;;;;;;27.80;26.70;;;12.80;65.20;;;;;;4377693;32;20160;-61
2022/03/19 11:13:08;;;;;;;28.27;27.07;;;12.70;63.70;;;;;;4376296;32;20243;-62
2022/03/19 11:15:35;;;;;;;33.00;31.70;;;12.70;62.80;;;;;;4376340;32;20158;-61
2022/03/19 11:18:08;;;;;;;32.73;31.43;;;12.70;64.80;;;;;;4375700;32;20168;-60
2022/03/19 11:20:35;;;;;;;28.23;27.13;;;12.80;64.60;;;;;;4377941;32;20267;-60
2022/03/19 11:23:09;;;;;;;28.23;27.13;;;12.80;62.80;;;;;;4388702;32;20179;-61
2022/03/19 11:25:41;;;;;;;27.20;26.10;;;12.70;62.70;;;;;;4390614;32;20518;-61
2022/03/19 11:28:11;;;;;;;31.10;29.90;;;12.70;65.10;;;;;;4391279;32;20148;-61
2022/03/19 11:30:41;;;;;;;30.87;29.40;;;12.80;64.00;;;;;;4389941;32;20136;-61
2022/03/19 11:33:16;;;;;;;30.73;29.40;;;12.90;63.20;;;;;;4388870;32;20190;-61
2022/03/19 11:35:45;;;;;;;27.47;26.27;;;13.00;61.70;;;;;;4390038;32;20218;-61
2022/03/19 11:38:16;;;;;;;29.37;28.27;;;12.90;61.30;;;;;;4389888;32;20137;-61
2022/03/19 11:40:47;;;;;;;26.80;25.80;;;13.10;61.20;;;;;;4389159;32;20259;-60
2022/03/19 11:43:18;;;;;;;26.77;25.67;;;13.00;60.90;;;;;;4389907;32;20162;-61
2022/03/19 11:45:56;;;;;;;25.50;24.50;;;13.10;60.30;;;;;;4391166;32;20164;-62
2022/03/19 11:48:41;;;;;;;24.67;23.67;;;13.00;60.80;;;;;;4388787;32;20202;-60
2022/03/19 11:51:29;;;;;;;29.07;27.87;;;13.10;60.00;;;;;;4376305;32;20151;-61
2022/03/19 11:53:58;;;;;;;24.60;23.67;;;13.10;58.60;;;;;;4375556;32;20151;-61
2022/03/19 11:56:27;;;;;;;24.10;23.20;;;13.10;57.50;;;;;;4376155;32;20163;-60
2022/03/19 11:58:54;;;;;;;25.67;24.67;;;13.10;56.60;;;;;;4385175;32;20231;-60
2022/03/19 12:01:45;;;;;;;23.27;22.37;;;13.00;58.00;;;;;;4388591;32;20228;-61
2022/03/19 12:04:13;;;;;;;26.13;25.13;;;13.10;57.50;;;;;;4389704;32;20152;-61
2022/03/19 12:06:50;;;;;;;23.23;22.33;;;13.20;57.60;;;;;;4390574;32;20162;-61
2022/03/19 12:09:19;;;;;;;23.70;22.80;;;13.10;56.40;;;;;;4388444;32;20213;-61
2022/03/19 12:12:23;;;;;;;24.10;23.10;;;13.20;57.60;;;;;;4388771;32;20172;-61
2022/03/19 12:14:50;;;;;;;26.90;25.83;;;13.20;57.00;;;;;;4388023;32;20149;-61
2022/03/19 12:17:19;;;;;;;22.87;21.97;;;13.20;57.00;;;;;;4389505;32;20178;-62
2022/03/19 12:19:54;;;;;;;21.33;20.53;;;13.30;57.50;;;;;;4389486;32;20164;-60
2022/03/19 12:22:33;;;;;;;22.07;21.27;;;13.30;57.90;;;;;;4388151;32;20144;-61
2022/03/19 12:25:12;;;;;;;21.33;20.53;;;13.30;57.90;;;;;;4378388;32;20219;-62
2022/03/19 12:27:40;;;;;;;22.70;21.67;;;13.30;56.60;;;;;;4377767;32;20158;-62
2022/03/19 12:30:08;;;;;;;25.73;24.73;;;13.30;57.20;;;;;;4381771;32;20219;-63
2022/03/19 12:32:54;;;;;;;20.93;20.13;;;13.40;56.90;;;;;;4393949;32;20212;-62
2022/03/19 12:35:22;;;;;;;20.93;20.13;;;13.30;56.50;;;;;;4392685;32;20494;-62
2022/03/19 12:37:50;;;;;;;24.37;23.37;;;13.40;55.10;;;;;;4390535;32;20181;-62
2022/03/19 12:40:26;;;;;;;24.70;23.70;;;13.50;54.90;;;;;;4379573;32;20145;-62
2022/03/19 12:42:55;;;;;;;19.70;18.93;;;13.50;53.40;;;;;;4377717;32;20210;-62
2022/03/19 12:45:37;;;;;;;21.20;20.40;;;13.50;54.00;;;;;;4377581;32;20159;-60
2022/03/19 12:48:11;;;;;;;23.77;22.80;;;13.50;53.00;;;;;;4378069;32;20540;-62
2022/03/19 12:50:39;;;;;;;22.70;21.83;;;13.70;53.10;;;;;;4380487;32;20555;-62
2022/03/19 12:53:08;;;;;;;20.37;19.43;;;13.60;53.10;;;;;;4385846;32;20179;-62
2022/03/19 12:55:36;;;;;;;24.73;23.83;;;13.60;53.10;;;;;;4392949;32;20464;-61
2022/03/19 12:58:05;;;;;;;20.73;19.93;;;13.70;50.80;;;;;;4391847;32;20179;-61